createdAt,value
2016-08-24T15:44:23.815Z,27.57
2016-08-24T15:45:08.930Z,27.45
2016-08-24T15:46:08.900Z,27.53
2016-08-24T15:47:08.930Z,27.49
2016-08-24T15:48:08.912Z,27.51
2016-08-24T15:49:08.928Z,27.45
2016-08-24T15:50:08.954Z,27.43
2016-08-24T15:51:08.983Z,27.38
2016-08-24T15:52:08.973Z,27.42
2016-08-24T15:53:08.958Z,27.51
2016-08-24T15:54:08.964Z,27.42
2016-08-24T15:55:08.978Z,27.43
2016-08-24T15:56:08.992Z,27.41
2016-08-24T15:57:09.008Z,27.37
2016-08-24T15:58:09.023Z,27.42
2016-08-24T15:59:09.013Z,27.41
2016-08-24T16:00:09.035Z,27.33
2016-08-24T16:01:09.049Z,27.34
2016-08-24T16:02:09.073Z,27.33
2016-08-24T16:03:09.057Z,27.31
2016-08-24T16:04:09.072Z,27.36
2016-08-24T16:05:09.096Z,27.27
2016-08-24T16:06:09.088Z,27.27
2016-08-24T16:07:09.120Z,27.16
2016-08-24T16:08:09.147Z,27.21
2016-08-24T16:09:09.131Z,27.19
2016-08-24T16:10:09.126Z,27.12
2016-08-24T16:11:09.169Z,27.09
2016-08-24T16:12:09.175Z,27.12
2016-08-24T16:13:09.163Z,27.12
2016-08-24T16:14:09.176Z,27.12
2016-08-24T16:15:09.201Z,27.15
2016-08-24T16:16:09.213Z,27.06
2016-08-24T16:17:09.235Z,27.12
2016-08-24T16:18:09.223Z,27
2016-08-24T16:19:09.219Z,26.99
2016-08-24T16:20:09.253Z,27.05
2016-08-24T16:21:09.259Z,27.09
2016-08-24T16:22:09.252Z,27.05
2016-08-24T16:23:09.290Z,27.06
2016-08-24T16:24:09.282Z,26.94
2016-08-24T16:25:09.306Z,26.93
2016-08-24T16:26:09.326Z,26.99
2016-08-24T16:27:09.319Z,26.93
2016-08-24T16:28:09.327Z,26.97
2016-08-24T16:29:09.342Z,26.97
2016-08-24T16:30:09.347Z,26.94
2016-08-24T16:31:09.352Z,26.94
2016-08-24T16:32:09.368Z,27.04
2016-08-24T16:33:09.364Z,26.86
2016-08-24T16:34:09.404Z,26.82
2016-08-24T16:35:09.418Z,26.93
2016-08-24T16:36:09.430Z,26.84
2016-08-24T16:37:09.407Z,26.87
2016-08-24T16:38:09.414Z,26.86
2016-08-24T16:39:09.445Z,26.82
2016-08-24T16:40:09.460Z,26.84
2016-08-24T16:41:09.480Z,26.76
2016-08-24T16:42:09.479Z,26.81
2016-08-24T16:43:09.494Z,26.82
2016-08-24T16:44:09.489Z,26.74
2016-08-24T16:45:09.495Z,26.69
2016-08-24T16:46:09.531Z,26.82
2016-08-24T16:47:09.548Z,26.82
2016-08-24T16:48:09.550Z,26.69
2016-08-24T16:49:09.565Z,26.71
2016-08-24T16:50:09.557Z,26.71
2016-08-24T16:51:09.580Z,26.64
2016-08-24T16:52:09.580Z,26.72
2016-08-24T16:53:09.594Z,26.71
2016-08-24T16:54:09.610Z,26.71
2016-08-24T16:55:09.632Z,26.63
2016-08-24T16:56:09.630Z,26.71
2016-08-24T16:57:09.640Z,26.64
2016-08-24T16:58:09.665Z,26.64
2016-08-24T16:59:09.677Z,26.6
2016-08-24T17:00:09.678Z,26.6
2016-08-24T17:01:09.715Z,26.63
2016-08-24T17:02:09.714Z,26.67
2016-08-24T17:03:09.719Z,26.69
2016-08-24T17:04:09.729Z,26.56
2016-08-24T17:05:09.703Z,26.56
2016-08-24T17:06:41.848Z,26.59
2016-08-24T17:07:09.761Z,26.6
2016-08-24T17:08:09.739Z,26.61
2016-08-24T17:09:09.771Z,26.54
2016-08-24T17:10:09.791Z,26.53
2016-08-24T17:11:09.798Z,26.52
2016-08-24T17:12:09.796Z,26.42
2016-08-24T17:13:09.814Z,26.49
2016-08-24T17:14:09.822Z,26.49
2016-08-24T17:15:09.826Z,26.42
2016-08-24T17:16:09.841Z,26.42
2016-08-24T17:17:09.854Z,26.39
2016-08-24T17:18:09.850Z,26.41
2016-08-24T17:19:09.896Z,26.42
2016-08-24T17:20:09.892Z,26.45
2016-08-24T17:21:09.891Z,26.45
2016-08-24T17:22:09.886Z,26.42
2016-08-24T17:23:09.931Z,26.39
2016-08-24T17:24:09.943Z,26.38
2016-08-24T17:25:09.941Z,26.45
2016-08-24T17:26:09.959Z,26.38
2016-08-24T17:27:09.950Z,26.35
2016-08-24T17:28:09.964Z,26.37
2016-08-24T17:29:09.995Z,26.38
2016-08-24T17:30:10.008Z,26.37
2016-08-24T17:31:10.005Z,26.34
2016-08-24T17:32:10.697Z,26.38
2016-08-24T17:33:10.032Z,26.39
2016-08-24T17:34:10.027Z,26.38
2016-08-24T17:35:10.065Z,26.31
2016-08-24T17:36:10.073Z,26.34
2016-08-24T17:37:10.047Z,26.27
2016-08-24T17:38:10.060Z,26.23
2016-08-24T17:39:10.078Z,26.26
2016-08-24T17:40:10.088Z,26.32
2016-08-24T17:41:10.127Z,26.27
2016-08-24T17:42:10.122Z,26.2
2016-08-24T17:43:10.122Z,26.24
2016-08-24T17:44:10.134Z,26.31
2016-08-24T17:45:10.163Z,26.26
2016-08-24T17:46:10.148Z,26.22
2016-08-24T17:47:10.176Z,26.2
2016-08-24T17:48:10.169Z,26.11
2016-08-24T17:49:10.199Z,26.07
2016-08-24T17:50:10.186Z,26.12
2016-08-24T17:51:10.232Z,26.12
2016-08-24T17:52:10.213Z,26.12
2016-08-24T17:53:10.232Z,26.06
2016-08-24T17:54:10.240Z,26.04
2016-08-24T17:55:10.242Z,26.03
2016-08-24T17:56:10.283Z,25.97
2016-08-24T17:57:10.276Z,25.99
2016-08-24T17:58:10.285Z,26.01
2016-08-24T17:59:10.309Z,25.99
2016-08-24T18:00:10.306Z,25.93
2016-08-24T18:01:10.342Z,25.94
2016-08-24T18:02:10.360Z,25.93
2016-08-24T18:03:10.346Z,25.86
2016-08-24T18:04:10.363Z,25.94
2016-08-24T18:05:10.366Z,25.85
2016-08-24T18:06:10.375Z,25.94
2016-08-24T18:07:10.373Z,25.89
2016-08-24T18:08:10.403Z,25.93
2016-08-24T18:09:10.398Z,25.91
2016-08-24T18:10:10.439Z,25.89
2016-08-24T18:11:10.415Z,25.88
2016-08-24T18:12:10.438Z,25.88
2016-08-24T18:13:10.452Z,25.86
2016-08-24T18:14:10.463Z,25.91
2016-08-24T18:15:10.457Z,25.93
2016-08-24T18:16:10.487Z,25.88
2016-08-24T18:17:10.482Z,25.78
2016-08-24T18:18:10.479Z,25.76
2016-08-24T18:19:10.483Z,25.88
2016-08-24T18:20:10.515Z,25.79
2016-08-24T18:21:10.543Z,25.85
2016-08-24T18:22:10.540Z,25.78
2016-08-24T18:23:10.539Z,25.7
2016-08-24T18:24:10.561Z,25.79
2016-08-24T18:25:10.561Z,25.81
2016-08-24T18:26:10.579Z,25.82
2016-08-24T18:27:10.580Z,25.82
2016-08-24T18:28:10.611Z,25.78
2016-08-24T18:29:10.601Z,25.84
2016-08-24T18:30:10.619Z,25.88
2016-08-24T18:31:10.630Z,25.86
2016-08-24T18:32:10.628Z,25.85
2016-08-24T18:33:10.647Z,25.85
2016-08-24T18:34:10.682Z,25.91
2016-08-24T18:35:10.667Z,25.86
2016-08-24T18:36:10.683Z,25.88
2016-08-24T18:37:10.697Z,25.88
2016-08-24T18:38:10.703Z,25.93
2016-08-24T18:39:10.704Z,25.94
2016-08-24T18:40:10.707Z,25.93
2016-08-24T18:41:10.727Z,25.91
2016-08-24T18:42:10.750Z,25.96
2016-08-24T18:43:10.749Z,25.93
2016-08-24T18:44:10.766Z,25.91
2016-08-24T18:45:10.792Z,25.91
2016-08-24T18:46:10.775Z,25.93
2016-08-24T18:47:10.814Z,25.94
2016-08-24T18:48:10.807Z,25.97
2016-08-24T18:49:10.804Z,25.94
2016-08-24T18:50:10.809Z,25.94
2016-08-24T18:51:10.830Z,26
2016-08-24T18:52:10.874Z,25.93
2016-08-24T18:53:10.844Z,25.94
2016-08-24T18:54:10.881Z,25.91
2016-08-24T18:55:10.890Z,25.93
2016-08-24T18:56:10.902Z,25.93
2016-08-24T18:57:10.895Z,25.86
2016-08-24T18:58:10.925Z,25.94
2016-08-24T18:59:10.916Z,25.97
2016-08-24T19:00:10.954Z,25.93
2016-08-24T19:01:10.927Z,25.86
2016-08-24T19:02:10.963Z,25.97
2016-08-24T19:03:10.992Z,25.88
2016-08-24T19:04:10.977Z,25.89
2016-08-24T19:05:10.973Z,25.99
2016-08-24T19:06:10.992Z,25.89
2016-08-24T19:07:11.019Z,25.88
2016-08-24T19:08:11.010Z,25.84
2016-08-24T19:09:11.027Z,25.88
2016-08-24T19:10:11.065Z,25.88
2016-08-24T19:11:11.061Z,25.88
2016-08-24T19:12:11.078Z,25.93
2016-08-24T19:13:11.065Z,25.89
2016-08-24T19:14:11.085Z,25.78
2016-08-24T19:15:11.079Z,25.86
2016-08-24T19:16:11.100Z,25.88
2016-08-24T19:17:11.112Z,25.82
2016-08-24T19:18:11.127Z,25.94
2016-08-24T19:19:11.130Z,25.78
2016-08-24T19:20:11.124Z,25.78
2016-08-24T19:21:11.140Z,25.84
2016-08-24T19:22:11.183Z,25.85
2016-08-24T19:23:11.185Z,25.81
2016-08-24T19:24:11.201Z,25.78
2016-08-24T19:25:11.201Z,25.78
2016-08-24T19:26:11.217Z,25.84
2016-08-24T19:27:11.215Z,25.82
2016-08-24T19:28:11.236Z,25.84
2016-08-24T19:29:11.215Z,25.82
2016-08-24T19:30:11.244Z,25.81
2016-08-24T19:31:11.241Z,25.82
2016-08-24T19:32:11.282Z,25.81
2016-08-24T19:33:11.281Z,25.7
2016-08-24T19:34:11.289Z,25.75
2016-08-24T19:35:11.301Z,25.75
2016-08-24T19:36:12.004Z,25.76
2016-08-24T19:37:11.311Z,25.71
2016-08-24T19:38:11.334Z,25.76
2016-08-24T19:39:11.329Z,25.71
2016-08-24T19:40:11.366Z,25.7
2016-08-24T19:41:11.361Z,25.7
2016-08-24T19:42:11.357Z,25.7
2016-08-24T19:43:11.404Z,25.75
2016-08-24T19:44:11.496Z,25.76
2016-08-24T19:45:11.398Z,25.74
2016-08-24T19:46:11.395Z,25.79
2016-08-24T19:47:11.432Z,25.66
2016-08-24T19:48:11.441Z,25.75
2016-08-24T19:49:11.433Z,25.63
2016-08-24T19:50:11.440Z,25.75
2016-08-24T19:51:11.487Z,25.74
2016-08-24T19:52:11.475Z,25.67
2016-08-24T19:53:11.490Z,25.76
2016-08-24T19:54:11.479Z,25.71
2016-08-24T19:55:11.520Z,25.66
2016-08-24T19:56:11.527Z,25.76
2016-08-24T19:57:11.514Z,25.75
2016-08-24T19:58:11.556Z,25.66
2016-08-24T19:59:11.564Z,25.7
2016-08-24T20:00:11.569Z,25.74
2016-08-24T20:01:11.590Z,25.64
2016-08-24T20:02:11.584Z,25.66
2016-08-24T20:03:11.580Z,25.67
2016-08-24T20:04:12.322Z,25.66
2016-08-24T20:05:11.607Z,25.62
2016-08-24T20:06:11.622Z,25.66
2016-08-24T20:07:11.641Z,25.64
2016-08-24T20:08:11.668Z,25.64
2016-08-24T20:09:11.658Z,25.67
2016-08-24T20:10:11.661Z,25.64
2016-08-24T20:11:11.683Z,25.67
2016-08-24T20:12:11.688Z,25.66
2016-08-24T20:13:11.687Z,25.56
2016-08-24T20:14:11.717Z,25.67
2016-08-24T20:15:11.723Z,25.64
2016-08-24T20:16:11.725Z,25.62
2016-08-24T20:17:11.730Z,25.59
2016-08-24T20:18:11.747Z,25.56
2016-08-24T20:19:11.759Z,25.56
2016-08-24T20:20:11.796Z,25.57
2016-08-24T20:21:11.811Z,25.57
2016-08-24T20:22:11.809Z,25.57
2016-08-24T20:23:11.816Z,25.56
2016-08-24T20:24:11.808Z,25.57
2016-08-24T20:25:11.825Z,25.56
2016-08-24T20:26:11.832Z,25.54
2016-08-24T20:27:11.852Z,25.48
2016-08-24T20:28:11.869Z,25.54
2016-08-24T20:29:11.879Z,25.56
2016-08-24T20:30:11.876Z,25.54
2016-08-24T20:31:11.879Z,25.52
2016-08-24T20:32:11.880Z,25.47
2016-08-24T20:33:11.903Z,25.52
2016-08-24T20:34:11.893Z,25.54
2016-08-24T20:35:11.936Z,25.42
2016-08-24T20:36:11.919Z,25.48
2016-08-24T20:37:11.959Z,25.49
2016-08-24T20:38:11.956Z,25.52
2016-08-24T20:39:11.969Z,25.45
2016-08-24T20:40:11.969Z,25.47
2016-08-24T20:41:11.990Z,25.49
2016-08-24T20:42:11.995Z,25.52
2016-08-24T20:43:12.003Z,25.44
2016-08-24T20:44:12.739Z,25.39
2016-08-24T20:45:12.042Z,25.44
2016-08-24T20:46:12.030Z,25.47
2016-08-24T20:47:12.081Z,25.45
2016-08-24T20:48:12.046Z,25.49
2016-08-24T20:49:12.071Z,25.48
2016-08-24T20:50:12.074Z,25.45
2016-08-24T20:51:12.076Z,25.45
2016-08-24T20:52:12.092Z,25.45
2016-08-24T20:53:12.094Z,25.44
2016-08-24T20:54:12.114Z,25.47
2016-08-24T20:55:12.130Z,25.45
2016-08-24T20:56:12.155Z,25.41
2016-08-24T20:57:12.145Z,25.44
2016-08-24T20:58:12.171Z,25.33
2016-08-24T20:59:12.175Z,25.44
2016-08-24T21:00:12.167Z,25.33
2016-08-24T21:01:12.187Z,25.33
2016-08-24T21:02:12.215Z,25.44
2016-08-24T21:03:12.201Z,25.37
2016-08-24T21:04:12.219Z,25.41
2016-08-24T21:05:12.246Z,25.37
2016-08-24T21:06:12.246Z,25.38
2016-08-24T21:07:12.239Z,25.34
2016-08-24T21:08:12.287Z,25.37
2016-08-24T21:09:12.269Z,25.32
2016-08-24T21:10:12.276Z,25.39
2016-08-24T21:11:12.286Z,25.3
2016-08-24T21:12:12.319Z,25.32
2016-08-24T21:13:12.330Z,25.3
2016-08-24T21:14:12.306Z,25.26
2016-08-24T21:15:12.317Z,25.3
2016-08-24T21:16:12.356Z,25.24
2016-08-24T21:17:12.348Z,25.34
2016-08-24T21:18:12.352Z,25.29
2016-08-24T21:19:12.380Z,25.29
2016-08-24T21:20:12.390Z,25.26
2016-08-24T21:21:12.395Z,25.29
2016-08-24T21:22:12.419Z,25.33
2016-08-24T21:23:12.423Z,25.32
2016-08-24T21:24:12.420Z,25.24
2016-08-24T21:25:12.425Z,25.27
2016-08-24T21:26:12.452Z,25.34
2016-08-24T21:27:12.456Z,25.26
2016-08-24T21:28:12.476Z,25.3
2016-08-24T21:29:12.485Z,25.3
2016-08-24T21:30:12.490Z,25.24
2016-08-24T21:31:12.498Z,25.3
2016-08-24T21:32:12.519Z,25.22
2016-08-24T21:33:12.541Z,25.29
2016-08-24T21:34:12.522Z,25.22
2016-08-24T21:35:12.523Z,25.24
2016-08-24T21:36:12.538Z,25.2
2016-08-24T21:37:12.544Z,25.24
2016-08-24T21:38:12.576Z,25.22
2016-08-24T21:39:12.557Z,25.23
2016-08-24T21:40:12.573Z,25.22
2016-08-24T21:41:12.611Z,25.22
2016-08-24T21:42:12.606Z,25.22
2016-08-24T21:43:12.615Z,25.2
2016-08-24T21:44:12.733Z,25.11
2016-08-24T21:45:12.635Z,25.19
2016-08-24T21:46:12.654Z,25.2
2016-08-24T21:47:12.675Z,25.15
2016-08-24T21:48:12.651Z,25.15
2016-08-24T21:49:12.689Z,25.2
2016-08-24T21:50:12.693Z,25.15
2016-08-24T21:51:12.684Z,25.14
2016-08-24T21:52:12.724Z,25.12
2016-08-24T21:53:12.707Z,25.12
2016-08-24T21:54:12.744Z,25.14
2016-08-24T21:55:12.742Z,25.14
2016-08-24T21:56:12.748Z,25.14
2016-08-24T21:57:12.746Z,25.17
2016-08-24T21:58:12.777Z,25.12
2016-08-24T21:59:12.782Z,25.23
2016-08-24T22:00:12.786Z,25.14
2016-08-24T22:01:12.796Z,25.19
2016-08-24T22:02:12.799Z,25.22
2016-08-24T22:03:12.839Z,25.15
2016-08-24T22:04:12.809Z,25.12
2016-08-24T22:05:12.831Z,25.17
2016-08-24T22:06:12.866Z,25.19
2016-08-24T22:07:12.863Z,25.19
2016-08-24T22:08:12.855Z,25.14
2016-08-24T22:09:12.868Z,25.2
2016-08-24T22:10:12.894Z,25.17
2016-08-24T22:11:12.890Z,25.14
2016-08-24T22:12:12.913Z,25.17
2016-08-24T22:13:12.917Z,25.19
2016-08-24T22:14:12.932Z,25.11
2016-08-24T22:15:12.944Z,25.08
2016-08-24T22:16:12.963Z,25.14
2016-08-24T22:17:12.971Z,25.09
2016-08-24T22:18:12.967Z,25.08
2016-08-24T22:19:13.001Z,25.09
2016-08-24T22:20:12.990Z,25.15
2016-08-24T22:21:13.013Z,25.08
2016-08-24T22:22:12.998Z,25.08
2016-08-24T22:23:13.021Z,25.12
2016-08-24T22:24:13.028Z,25.09
2016-08-24T22:25:13.047Z,25.02
2016-08-24T22:26:13.059Z,25.12
2016-08-24T22:27:13.078Z,25.02
2016-08-24T22:28:13.063Z,25.11
2016-08-24T22:29:13.080Z,25.08
2016-08-24T22:30:13.100Z,25.07
2016-08-24T22:31:13.099Z,25.11
2016-08-24T22:32:13.131Z,25.02
2016-08-24T22:33:13.138Z,25.01
2016-08-24T22:34:13.134Z,25.08
2016-08-24T22:35:13.155Z,25
2016-08-24T22:36:13.145Z,25.05
2016-08-24T22:37:13.152Z,25.09
2016-08-24T22:38:13.159Z,25.11
2016-08-24T22:39:13.175Z,25.07
2016-08-24T22:40:13.201Z,25.12
2016-08-24T22:41:13.212Z,25.12
2016-08-24T22:42:13.214Z,25.04
2016-08-24T22:43:13.235Z,25.07
2016-08-24T22:44:13.337Z,25.04
2016-08-24T22:45:13.225Z,25.09
2016-08-24T22:46:13.262Z,25.02
2016-08-24T22:47:13.276Z,25.08
2016-08-24T22:48:13.274Z,25.07
2016-08-24T22:49:13.273Z,25.11
2016-08-24T22:50:13.286Z,25.05
2016-08-24T22:51:13.279Z,25.08
2016-08-24T22:52:13.318Z,25.04
2016-08-24T22:53:13.335Z,25.02
2016-08-24T22:54:13.336Z,25.04
2016-08-24T22:55:13.358Z,25.01
2016-08-24T22:56:13.356Z,25.09
2016-08-24T22:57:13.385Z,25
2016-08-24T22:58:13.357Z,25.04
2016-08-24T22:59:13.371Z,25.04
2016-08-24T23:00:13.391Z,25.04
2016-08-24T23:01:13.421Z,25
2016-08-24T23:02:13.421Z,25
2016-08-24T23:03:13.420Z,25.02
2016-08-24T23:04:13.410Z,25
2016-08-24T23:05:13.443Z,25
2016-08-24T23:06:13.447Z,24.94
2016-08-24T23:07:13.457Z,24.97
2016-08-24T23:08:13.489Z,25.02
2016-08-24T23:09:13.486Z,24.93
2016-08-24T23:10:13.478Z,24.94
2016-08-24T23:11:13.514Z,24.96
2016-08-24T23:12:13.505Z,24.96
2016-08-24T23:13:13.532Z,24.9
2016-08-24T23:14:13.545Z,24.93
2016-08-24T23:15:13.536Z,24.94
2016-08-24T23:16:13.551Z,24.94
2016-08-24T23:17:13.566Z,24.94
2016-08-24T23:18:13.587Z,24.96
2016-08-24T23:19:13.569Z,24.94
2016-08-24T23:20:13.595Z,24.92
2016-08-24T23:21:13.619Z,24.94
2016-08-24T23:22:13.618Z,24.94
2016-08-24T23:23:13.602Z,24.9
2016-08-24T23:24:13.627Z,24.94
2016-08-24T23:25:13.626Z,24.96
2016-08-24T23:26:13.637Z,24.92
2016-08-24T23:27:13.662Z,24.96
2016-08-24T23:28:13.666Z,24.92
2016-08-24T23:29:13.672Z,24.86
2016-08-24T23:30:13.679Z,24.9
2016-08-24T23:31:13.687Z,24.93
2016-08-24T23:32:13.717Z,24.97
2016-08-24T23:33:13.740Z,24.9
2016-08-24T23:34:13.709Z,24.9
2016-08-24T23:35:13.737Z,24.9
2016-08-24T23:36:13.762Z,24.89
2016-08-24T23:37:13.762Z,24.9
2016-08-24T23:38:13.782Z,24.77
2016-08-24T23:39:13.783Z,24.93
2016-08-24T23:40:13.784Z,24.77
2016-08-24T23:41:13.796Z,24.78
2016-08-24T23:42:13.822Z,24.86
2016-08-24T23:43:13.820Z,24.78
2016-08-24T23:44:13.823Z,24.83
2016-08-24T23:45:13.833Z,24.78
2016-08-24T23:46:13.850Z,24.77
2016-08-24T23:47:13.866Z,24.8
2016-08-24T23:48:13.862Z,24.86
2016-08-24T23:49:13.902Z,24.78
2016-08-24T23:50:13.893Z,24.85
2016-08-24T23:51:13.879Z,24.8
2016-08-24T23:52:13.919Z,24.77
2016-08-24T23:53:13.932Z,24.85
2016-08-24T23:54:13.920Z,24.85
2016-08-24T23:55:13.949Z,24.82
2016-08-24T23:56:13.957Z,24.9
2016-08-24T23:57:13.962Z,24.78
2016-08-24T23:58:13.969Z,24.78
2016-08-24T23:59:13.980Z,24.82
